createdAt,value
2019-05-09T00:00:14.636Z,6.50
2019-05-09T00:02:44.193Z,6.60
2019-05-09T00:05:13.933Z,6.50
2019-05-09T00:07:43.927Z,6.40
2019-05-09T00:10:14.290Z,6.40
2019-05-09T00:12:44.973Z,6.50
2019-05-09T00:15:14.206Z,6.50
2019-05-09T00:17:43.918Z,6.60
2019-05-09T00:20:33.063Z,6.70
2019-05-09T00:23:03.277Z,6.80
2019-05-09T00:25:34.259Z,6.80
2019-05-09T00:28:04.226Z,6.90
2019-05-09T00:30:51.062Z,6.90
2019-05-09T00:33:23.552Z,6.90
2019-05-09T00:35:53.416Z,6.90
2019-05-09T00:38:24.112Z,6.80
2019-05-09T00:40:58.670Z,6.80
2019-05-09T00:43:23.831Z,6.90
2019-05-09T00:46:04.273Z,6.80
2019-05-09T00:48:34.911Z,6.70
2019-05-09T00:51:03.817Z,6.70
2019-05-09T00:53:33.906Z,6.70
2019-05-09T00:56:04.107Z,6.60
2019-05-09T00:58:33.703Z,6.60
2019-05-09T01:01:04.431Z,6.60
2019-05-09T01:03:34.120Z,6.60
2019-05-09T01:06:04.563Z,6.60
2019-05-09T01:08:33.805Z,6.60
2019-05-09T01:11:11.866Z,6.60
2019-05-09T01:13:34.183Z,6.60
2019-05-09T01:16:04.565Z,6.60
2019-05-09T01:18:34.461Z,6.60
2019-05-09T01:21:04.092Z,6.60
2019-05-09T01:23:34.417Z,6.50
2019-05-09T01:26:03.990Z,6.50
2019-05-09T01:28:34.141Z,6.60
2019-05-09T01:31:04.056Z,6.50
2019-05-09T01:33:53.467Z,6.50
2019-05-09T01:36:23.481Z,6.60
2019-05-09T01:38:53.943Z,6.60
2019-05-09T01:41:30.434Z,6.50
2019-05-09T01:43:53.726Z,6.50
2019-05-09T01:46:23.567Z,6.50
2019-05-09T01:48:53.925Z,6.40
2019-05-09T01:51:23.440Z,6.40
2019-05-09T01:53:53.993Z,6.30
2019-05-09T01:56:23.481Z,6.20
2019-05-09T01:58:53.897Z,6.20
2019-05-09T02:01:24.095Z,6.10
2019-05-09T02:03:54.536Z,6.10
2019-05-09T02:06:24.513Z,6.00
2019-05-09T02:08:54.450Z,6.00
2019-05-09T02:11:25.314Z,6.00
2019-05-09T02:13:54.366Z,6.00
2019-05-09T02:16:24.808Z,6.00
2019-05-09T02:18:55.249Z,5.90
2019-05-09T02:21:24.205Z,5.80
2019-05-09T02:23:53.773Z,5.80
2019-05-09T02:26:24.031Z,5.80
2019-05-09T02:28:53.837Z,5.70
2019-05-09T02:31:24.475Z,5.70
2019-05-09T02:33:54.345Z,5.60
2019-05-09T02:36:23.439Z,5.70
2019-05-09T02:38:52.344Z,5.70
2019-05-09T02:41:21.260Z,5.70
2019-05-09T02:43:50.163Z,5.70
2019-05-09T02:46:32.885Z,5.60
2019-05-09T02:49:01.791Z,5.60
2019-05-09T02:51:30.811Z,5.60
2019-05-09T02:53:59.712Z,5.60
2019-05-09T02:56:29.947Z,5.50
2019-05-09T02:59:09.994Z,5.50
2019-05-09T03:01:58.557Z,5.50
2019-05-09T03:04:28.548Z,5.50
2019-05-09T03:06:59.698Z,5.50
2019-05-09T03:09:28.772Z,5.70
2019-05-09T03:11:58.968Z,5.70
2019-05-09T03:14:28.834Z,5.70
2019-05-09T03:16:58.861Z,5.60
2019-05-09T03:19:29.650Z,5.60
2019-05-09T03:22:03.119Z,5.60
2019-05-09T03:24:32.434Z,5.70
2019-05-09T03:27:02.910Z,5.70
2019-05-09T03:29:39.434Z,5.80
2019-05-09T03:32:09.146Z,5.80
2019-05-09T03:34:37.393Z,5.90
2019-05-09T03:37:08.340Z,5.90
2019-05-09T03:39:37.749Z,6.00
2019-05-09T03:42:07.875Z,6.00
2019-05-09T03:44:38.528Z,6.10
2019-05-09T03:47:09.301Z,6.20
2019-05-09T03:49:39.187Z,6.30
2019-05-09T03:52:08.142Z,6.30
2019-05-09T03:54:37.642Z,6.50
2019-05-09T03:57:08.207Z,6.50
2019-05-09T03:59:38.133Z,6.60
2019-05-09T04:02:09.944Z,6.70
2019-05-09T04:04:38.353Z,6.80
2019-05-09T04:07:08.411Z,6.90
2019-05-09T04:09:39.611Z,7.00
2019-05-09T04:12:08.102Z,7.10
2019-05-09T04:14:38.038Z,7.20
2019-05-09T04:17:07.873Z,7.30
2019-05-09T04:19:38.051Z,7.40
2019-05-09T04:22:08.120Z,7.50
2019-05-09T04:24:38.207Z,7.60
2019-05-09T04:27:08.913Z,7.70
2019-05-09T04:29:37.822Z,7.80
2019-05-09T04:32:07.930Z,7.90
2019-05-09T04:34:38.087Z,8.00
2019-05-09T04:37:08.020Z,8.10
2019-05-09T04:39:38.691Z,8.20
2019-05-09T04:42:08.575Z,8.30
2019-05-09T04:44:42.116Z,8.40
2019-05-09T04:47:11.007Z,8.40
2019-05-09T04:49:44.804Z,8.50
2019-05-09T04:52:10.579Z,8.60
2019-05-09T04:54:39.466Z,8.70
2019-05-09T04:57:10.317Z,8.80
2019-05-09T04:59:38.946Z,8.90
2019-05-09T05:02:12.144Z,9.00
2019-05-09T05:04:41.054Z,9.10
2019-05-09T05:07:09.959Z,9.20
2019-05-09T05:09:38.868Z,9.30
2019-05-09T05:12:08.465Z,9.40
2019-05-09T05:14:38.417Z,9.50
2019-05-09T05:17:11.240Z,9.50
2019-05-09T05:19:38.430Z,9.60
2019-05-09T05:22:09.138Z,9.70
2019-05-09T05:24:39.692Z,9.80
2019-05-09T05:27:08.594Z,9.90
2019-05-09T05:29:38.372Z,10.00
2019-05-09T05:32:09.071Z,10.10
2019-05-09T05:34:58.344Z,10.20
2019-05-09T05:37:28.221Z,10.30
2019-05-09T05:39:58.298Z,10.40
2019-05-09T05:42:28.178Z,10.60
2019-05-09T05:44:58.293Z,10.60
2019-05-09T05:47:34.448Z,10.70
2019-05-09T05:50:03.454Z,10.80
2019-05-09T05:52:32.464Z,10.90
2019-05-09T05:55:01.370Z,11.00
2019-05-09T05:57:30.256Z,11.00
2019-05-09T05:59:59.167Z,11.20
2019-05-09T06:02:28.238Z,11.30
2019-05-09T06:04:57.930Z,11.30
2019-05-09T06:07:28.543Z,11.40
2019-05-09T06:09:57.715Z,11.50
2019-05-09T06:12:27.664Z,11.60
2019-05-09T06:14:58.191Z,11.70
2019-05-09T06:17:28.644Z,11.80
2019-05-09T06:19:58.899Z,11.90
2019-05-09T06:22:28.157Z,12.00
2019-05-09T06:24:58.250Z,12.20
2019-05-09T06:27:27.619Z,12.20
2019-05-09T06:29:58.151Z,12.40
2019-05-09T06:32:27.986Z,12.50
2019-05-09T06:34:57.789Z,12.60
2019-05-09T06:37:27.706Z,12.70
2019-05-09T06:39:58.254Z,12.90
2019-05-09T06:42:28.642Z,13.00
2019-05-09T06:45:03.578Z,13.20
2019-05-09T06:47:34.124Z,13.20
2019-05-09T06:50:04.973Z,13.40
2019-05-09T06:52:33.982Z,13.50
2019-05-09T06:55:02.894Z,13.70
2019-05-09T06:57:31.903Z,14.10
2019-05-09T07:00:00.807Z,14.70
2019-05-09T07:02:40.257Z,15.40
2019-05-09T07:05:10.785Z,15.60
2019-05-09T07:07:41.350Z,16.00
2019-05-09T07:10:12.510Z,15.60
2019-05-09T07:12:41.621Z,15.90
2019-05-09T07:15:10.652Z,15.90
2019-05-09T07:17:39.641Z,16.10
2019-05-09T07:20:09.041Z,16.30
2019-05-09T07:22:39.578Z,16.00
2019-05-09T07:25:11.315Z,16.20
2019-05-09T07:27:41.825Z,16.70
2019-05-09T07:30:21.783Z,16.30
2019-05-09T07:33:08.804Z,16.60
2019-05-09T07:35:38.291Z,16.90
2019-05-09T07:38:08.560Z,16.40
2019-05-09T07:40:38.478Z,16.20
2019-05-09T07:43:07.973Z,16.70
2019-05-09T07:45:38.378Z,16.60
2019-05-09T07:48:07.746Z,17.30
2019-05-09T07:50:38.829Z,17.60
2019-05-09T07:53:08.756Z,17.80
2019-05-09T07:55:38.104Z,18.50
2019-05-09T07:58:08.029Z,18.60
2019-05-09T08:00:38.427Z,18.80
2019-05-09T08:03:10.550Z,18.40
2019-05-09T08:05:38.627Z,17.50
2019-05-09T08:08:10.705Z,17.10
2019-05-09T08:10:39.642Z,16.80
2019-05-09T08:13:11.790Z,17.40
2019-05-09T08:15:39.174Z,18.00
2019-05-09T08:18:08.643Z,18.10
2019-05-09T08:20:40.402Z,18.40
2019-05-09T08:23:08.818Z,18.30
2019-05-09T08:25:38.392Z,18.70
2019-05-09T08:28:09.031Z,20.00
2019-05-09T08:30:40.338Z,19.60
2019-05-09T08:33:08.584Z,19.80
2019-05-09T08:35:38.297Z,19.90
2019-05-09T08:38:08.566Z,20.60
2019-05-09T08:40:38.411Z,19.80
2019-05-09T08:43:07.756Z,19.30
2019-05-09T08:45:38.261Z,20.20
2019-05-09T08:48:09.438Z,20.70
2019-05-09T08:50:44.038Z,20.70
2019-05-09T08:53:13.051Z,20.60
2019-05-09T08:55:41.957Z,19.90
2019-05-09T08:58:10.819Z,19.50
2019-05-09T09:00:41.089Z,20.10
2019-05-09T09:03:11.135Z,20.80
2019-05-09T09:05:43.109Z,22.50
2019-05-09T09:08:10.794Z,22.40
2019-05-09T09:10:39.701Z,22.40
2019-05-09T09:13:09.115Z,22.10
2019-05-09T09:16:02.729Z,21.40
2019-05-09T09:18:08.948Z,21.10
2019-05-09T09:20:38.295Z,20.90
2019-05-09T09:23:08.864Z,21.60
2019-05-09T09:25:39.007Z,21.80
2019-05-09T09:28:10.030Z,22.80
2019-05-09T09:30:39.254Z,23.60
2019-05-09T09:33:11.432Z,23.80
2019-05-09T09:35:38.816Z,23.60
2019-05-09T09:38:09.327Z,24.00
2019-05-09T09:40:38.665Z,25.30
2019-05-09T09:43:09.157Z,25.00
2019-05-09T09:45:38.637Z,23.70
2019-05-09T09:48:09.084Z,23.10
2019-05-09T09:50:38.496Z,23.80
2019-05-09T09:53:08.680Z,24.10
2019-05-09T09:55:38.651Z,23.60
2019-05-09T09:58:08.233Z,24.00
2019-05-09T10:00:49.794Z,23.60
2019-05-09T10:03:18.633Z,24.70
2019-05-09T10:05:49.034Z,24.50
2019-05-09T10:08:18.377Z,25.40
2019-05-09T10:10:48.576Z,23.80
2019-05-09T10:13:18.535Z,23.50
2019-05-09T10:15:49.376Z,22.40
2019-05-09T10:18:27.630Z,22.00
2019-05-09T10:20:58.543Z,21.70
2019-05-09T10:23:27.866Z,21.30
2019-05-09T10:25:58.171Z,21.20
2019-05-09T10:28:30.001Z,20.40
2019-05-09T10:30:57.914Z,21.10
2019-05-09T10:33:28.032Z,21.70
2019-05-09T10:36:04.149Z,20.80
2019-05-09T10:38:28.053Z,20.50
2019-05-09T10:41:01.204Z,20.30
2019-05-09T10:43:48.574Z,20.40
2019-05-09T10:46:19.723Z,20.70
2019-05-09T10:48:50.187Z,20.50
2019-05-09T10:51:19.213Z,19.50
2019-05-09T10:53:48.319Z,19.50
2019-05-09T10:56:18.680Z,19.50
2019-05-09T10:58:48.374Z,19.80
2019-05-09T11:01:18.518Z,19.60
2019-05-09T11:03:48.504Z,19.40
2019-05-09T11:06:18.531Z,19.30
2019-05-09T11:08:48.038Z,18.80
2019-05-09T11:11:18.146Z,18.50
2019-05-09T11:13:48.447Z,18.80
2019-05-09T11:16:18.368Z,19.20
2019-05-09T11:18:48.450Z,19.90
2019-05-09T11:21:19.314Z,19.60
2019-05-09T11:23:48.975Z,19.30
2019-05-09T11:26:18.482Z,19.90
2019-05-09T11:28:47.687Z,20.50
2019-05-09T11:31:18.452Z,20.50
2019-05-09T11:33:48.351Z,20.30
2019-05-09T11:36:21.165Z,20.20
2019-05-09T11:38:49.690Z,20.30
2019-05-09T11:41:19.511Z,20.60
2019-05-09T11:43:48.868Z,20.20
2019-05-09T11:46:18.453Z,20.30
2019-05-09T11:48:47.637Z,20.50
2019-05-09T11:51:20.538Z,20.50
2019-05-09T11:53:48.566Z,19.80
2019-05-09T11:56:18.143Z,19.60
2019-05-09T11:58:48.545Z,20.00
2019-05-09T12:01:19.282Z,19.60
2019-05-09T12:03:52.035Z,20.00
2019-05-09T12:06:20.203Z,20.10
2019-05-09T12:08:50.336Z,20.10
2019-05-09T12:11:19.369Z,20.30
2019-05-09T12:13:48.827Z,20.20
2019-05-09T12:16:18.766Z,20.10
2019-05-09T12:18:48.977Z,20.20
2019-05-09T12:21:19.114Z,20.30
2019-05-09T12:23:49.340Z,20.40
2019-05-09T12:26:19.552Z,20.30
2019-05-09T12:28:48.753Z,19.80
2019-05-09T12:31:18.348Z,19.40
2019-05-09T12:33:48.427Z,19.20
2019-05-09T12:36:19.079Z,19.60
2019-05-09T12:38:49.903Z,19.60
2019-05-09T12:41:19.320Z,19.00
2019-05-09T12:43:48.472Z,18.70
2019-05-09T12:46:17.381Z,18.50
2019-05-09T12:48:48.118Z,18.50
2019-05-09T12:51:18.449Z,18.60
2019-05-09T12:53:48.539Z,18.70
2019-05-09T12:56:18.899Z,18.90
2019-05-09T12:58:48.159Z,18.70
2019-05-09T13:01:18.846Z,19.00
2019-05-09T13:03:48.442Z,19.20
2019-05-09T13:06:20.070Z,19.50
2019-05-09T13:08:48.294Z,19.50
2019-05-09T13:11:18.836Z,19.20
2019-05-09T13:13:48.068Z,19.10
2019-05-09T13:16:39.762Z,19.20
2019-05-09T13:19:02.742Z,19.30
2019-05-09T13:21:32.829Z,19.40
2019-05-09T13:24:02.455Z,19.50
2019-05-09T13:26:31.514Z,19.20
2019-05-09T13:29:00.438Z,19.40
2019-05-09T13:31:29.703Z,19.50
2019-05-09T13:33:58.795Z,19.70
2019-05-09T13:36:28.473Z,19.80
2019-05-09T13:39:04.164Z,19.90
2019-05-09T13:41:28.761Z,19.50
2019-05-09T13:44:03.612Z,18.80
2019-05-09T13:46:28.528Z,18.50
2019-05-09T13:49:10.753Z,18.40
2019-05-09T13:51:28.064Z,18.50
2019-05-09T13:53:59.048Z,18.40
2019-05-09T13:56:28.096Z,18.60
2019-05-09T13:58:58.110Z,18.60
2019-05-09T14:01:27.390Z,18.70
2019-05-09T14:03:57.714Z,18.50
2019-05-09T14:06:27.780Z,18.50
2019-05-09T14:08:59.434Z,18.70
2019-05-09T14:11:29.165Z,18.90
2019-05-09T14:13:58.080Z,18.90
2019-05-09T14:16:28.689Z,18.60
2019-05-09T14:19:00.618Z,18.20
2019-05-09T14:21:29.789Z,18.20
2019-05-09T14:24:10.907Z,18.20
2019-05-09T14:26:29.566Z,18.30
2019-05-09T14:28:58.475Z,18.30
2019-05-09T14:31:31.839Z,18.40
2019-05-09T14:33:58.030Z,18.50
2019-05-09T14:36:27.750Z,18.30
2019-05-09T14:38:58.036Z,18.30
2019-05-09T14:41:27.759Z,18.20
2019-05-09T14:43:59.506Z,18.10
2019-05-09T14:46:28.474Z,18.20
2019-05-09T14:48:58.382Z,18.30
2019-05-09T14:51:29.297Z,18.40
2019-05-09T14:53:59.411Z,18.40
2019-05-09T14:56:28.744Z,18.20
2019-05-09T14:58:58.216Z,18.40
2019-05-09T15:01:28.827Z,18.40
2019-05-09T15:03:58.784Z,18.30
2019-05-09T15:06:28.331Z,18.10
2019-05-09T15:08:58.127Z,18.10
2019-05-09T15:11:28.187Z,18.10
2019-05-09T15:13:58.429Z,18.10
2019-05-09T15:16:28.197Z,18.20
2019-05-09T15:18:58.464Z,18.20
2019-05-09T15:21:27.533Z,18.10
2019-05-09T15:23:58.575Z,18.20
2019-05-09T15:26:27.703Z,18.30
2019-05-09T15:28:57.780Z,18.30
2019-05-09T15:31:28.578Z,18.30
2019-05-09T15:33:57.503Z,18.20
2019-05-09T15:36:26.513Z,18.00
2019-05-09T15:38:55.401Z,18.10
2019-05-09T15:41:24.334Z,18.00
2019-05-09T15:43:53.338Z,18.00
2019-05-09T15:46:23.886Z,18.00
2019-05-09T15:48:52.917Z,18.00
2019-05-09T15:51:21.801Z,18.00
2019-05-09T15:53:50.810Z,17.90
2019-05-09T15:56:19.829Z,17.90
2019-05-09T15:58:49.156Z,17.90
2019-05-09T16:01:18.544Z,17.80
2019-05-09T16:03:48.534Z,17.80
2019-05-09T16:06:19.878Z,17.80
2019-05-09T16:08:48.351Z,17.80
2019-05-09T16:11:17.999Z,17.70
2019-05-09T16:13:47.965Z,17.70
2019-05-09T16:16:18.373Z,17.70
2019-05-09T16:18:48.699Z,17.70
2019-05-09T16:21:17.904Z,17.60
2019-05-09T16:23:48.671Z,17.60
2019-05-09T16:26:18.201Z,17.60
2019-05-09T16:28:48.785Z,17.60
2019-05-09T16:31:17.936Z,17.60
2019-05-09T16:33:47.743Z,17.60
2019-05-09T16:36:17.926Z,17.50
2019-05-09T16:38:49.095Z,17.50
2019-05-09T16:41:18.550Z,17.50
2019-05-09T16:43:48.042Z,17.40
2019-05-09T16:46:18.145Z,17.40
2019-05-09T16:48:47.617Z,17.40
2019-05-09T16:51:18.219Z,17.40
2019-05-09T16:53:49.554Z,17.30
2019-05-09T16:56:18.172Z,17.30
2019-05-09T16:58:47.182Z,17.30
2019-05-09T17:01:18.536Z,17.30
2019-05-09T17:03:48.281Z,17.30
2019-05-09T17:06:18.387Z,17.30
2019-05-09T17:08:47.694Z,17.20
2019-05-09T17:11:19.220Z,17.20
2019-05-09T17:13:47.233Z,17.20
2019-05-09T17:16:17.740Z,17.20
2019-05-09T17:18:48.669Z,17.10
2019-05-09T17:21:34.472Z,17.10
2019-05-09T17:24:05.020Z,17.10
2019-05-09T17:26:33.922Z,17.10
2019-05-09T17:29:02.775Z,17.00
2019-05-09T17:31:31.737Z,17.10
2019-05-09T17:34:00.651Z,17.00
2019-05-09T17:36:29.554Z,17.00
2019-05-09T17:38:58.462Z,17.00
2019-05-09T17:41:28.448Z,16.90
2019-05-09T17:43:58.178Z,16.90
2019-05-09T17:46:27.622Z,16.90
2019-05-09T17:48:58.247Z,16.90
2019-05-09T17:51:33.878Z,16.90
2019-05-09T17:53:58.450Z,16.90
2019-05-09T17:56:27.569Z,16.90
2019-05-09T17:58:57.838Z,16.80
2019-05-09T18:01:27.708Z,16.80
2019-05-09T18:03:59.042Z,16.80
2019-05-09T18:06:28.155Z,16.80
2019-05-09T18:08:57.720Z,16.80
2019-05-09T18:11:26.953Z,16.70
2019-05-09T18:13:55.862Z,16.70
2019-05-09T18:16:24.769Z,16.70
2019-05-09T18:18:55.810Z,16.70
2019-05-09T18:21:24.732Z,16.70
2019-05-09T18:23:53.640Z,16.70
2019-05-09T18:26:22.550Z,16.60
2019-05-09T18:28:51.455Z,16.60
2019-05-09T18:31:22.004Z,16.60
2019-05-09T18:33:55.212Z,16.60
2019-05-09T18:36:24.118Z,16.60
2019-05-09T18:38:53.010Z,16.60
2019-05-09T18:41:22.034Z,16.60
2019-05-09T18:43:50.940Z,16.60
2019-05-09T18:46:21.672Z,16.60
2019-05-09T18:48:50.499Z,16.50
2019-05-09T18:51:19.411Z,16.40
2019-05-09T18:53:48.312Z,16.30
2019-05-09T18:56:17.321Z,16.30
2019-05-09T18:58:46.231Z,16.30
2019-05-09T19:01:15.137Z,16.20
2019-05-09T19:03:44.045Z,16.20
2019-05-09T19:06:12.937Z,16.20
2019-05-09T19:08:41.844Z,16.20
2019-05-09T19:11:10.770Z,16.10
2019-05-09T19:13:39.781Z,16.10
2019-05-09T19:16:10.323Z,16.00
2019-05-09T19:18:56.118Z,16.00
2019-05-09T19:21:29.735Z,15.90
2019-05-09T19:23:58.647Z,15.90
2019-05-09T19:26:36.659Z,15.90
2019-05-09T19:29:09.350Z,15.70
2019-05-09T19:31:39.228Z,15.80
2019-05-09T19:34:08.193Z,15.80
2019-05-09T19:36:37.309Z,15.70
2019-05-09T19:39:10.237Z,15.80
2019-05-09T19:41:39.409Z,15.70
2019-05-09T19:44:08.326Z,15.70
2019-05-09T19:46:37.253Z,15.70
2019-05-09T19:49:06.147Z,15.70
2019-05-09T19:51:35.051Z,15.70
2019-05-09T19:54:05.355Z,15.70
2019-05-09T19:56:34.306Z,15.70
2019-05-09T19:59:06.716Z,15.70
2019-05-09T20:01:33.753Z,15.70
2019-05-09T20:04:03.687Z,15.60
2019-05-09T20:06:32.590Z,15.60
2019-05-09T20:09:01.932Z,15.60
2019-05-09T20:11:44.746Z,15.50
2019-05-09T20:14:15.177Z,15.50
2019-05-09T20:16:47.190Z,15.50
2019-05-09T20:19:16.281Z,15.40
2019-05-09T20:21:45.181Z,15.40
2019-05-09T20:24:14.129Z,15.30
2019-05-09T20:26:43.203Z,15.40
2019-05-09T20:29:12.295Z,15.30
2019-05-09T20:31:41.320Z,15.30
2019-05-09T20:34:10.225Z,15.30
2019-05-09T20:36:39.151Z,15.20
2019-05-09T20:39:08.466Z,15.30
2019-05-09T20:41:37.563Z,15.30
2019-05-09T20:44:06.777Z,15.20
2019-05-09T20:46:35.890Z,15.20
2019-05-09T20:49:05.107Z,15.20
2019-05-09T20:51:34.215Z,15.10
2019-05-09T20:54:03.533Z,15.10
2019-05-09T20:56:32.646Z,15.10
2019-05-09T20:59:01.763Z,15.00
2019-05-09T21:01:30.876Z,15.00
2019-05-09T21:04:00.911Z,14.90
2019-05-09T21:06:30.226Z,14.80
2019-05-09T21:08:59.232Z,14.80
2019-05-09T21:11:28.349Z,14.70
2019-05-09T21:13:57.456Z,14.60
2019-05-09T21:16:26.574Z,14.60
2019-05-09T21:18:55.680Z,14.50
2019-05-09T21:21:24.793Z,14.60
2019-05-09T21:23:55.237Z,14.50
2019-05-09T21:26:24.348Z,14.40
2019-05-09T21:28:53.462Z,14.40
2019-05-09T21:31:22.576Z,14.30
2019-05-09T21:33:51.686Z,14.30
2019-05-09T21:36:20.601Z,14.20
2019-05-09T21:38:49.502Z,14.20
2019-05-09T21:41:18.418Z,14.10
2019-05-09T21:43:47.524Z,14.00
2019-05-09T21:46:16.535Z,14.00
2019-05-09T21:48:45.446Z,14.00
2019-05-09T21:51:14.447Z,13.90
2019-05-09T21:53:43.356Z,13.90
2019-05-09T21:56:12.267Z,13.90
2019-05-09T21:58:42.094Z,13.90
2019-05-09T22:01:15.702Z,13.80
2019-05-09T22:03:44.724Z,13.70
2019-05-09T22:06:14.644Z,13.70
2019-05-09T22:08:43.559Z,13.60
2019-05-09T22:11:12.570Z,13.60
2019-05-09T22:13:43.130Z,13.60
2019-05-09T22:16:12.006Z,13.50
2019-05-09T22:18:41.133Z,13.50
2019-05-09T22:21:11.583Z,13.40
2019-05-09T22:23:55.144Z,13.30
2019-05-09T22:26:11.034Z,13.20
2019-05-09T22:28:39.937Z,13.20
2019-05-09T22:31:08.824Z,13.20
2019-05-09T22:33:37.755Z,13.20
2019-05-09T22:36:06.661Z,13.10
2019-05-09T22:38:35.496Z,13.10
2019-05-09T22:41:04.482Z,13.10
2019-05-09T22:43:33.386Z,13.00
2019-05-09T22:46:02.295Z,12.90
2019-05-09T22:48:31.301Z,12.90
2019-05-09T22:51:00.313Z,12.70
2019-05-09T22:53:29.321Z,12.70
2019-05-09T22:55:58.228Z,12.70
2019-05-09T22:58:27.137Z,12.70
2019-05-09T23:00:56.762Z,12.70
2019-05-09T23:03:25.652Z,12.70
2019-05-09T23:05:54.576Z,12.70
2019-05-09T23:08:23.485Z,12.60
2019-05-09T23:10:53.512Z,12.60
2019-05-09T23:13:22.735Z,12.50
2019-05-09T23:15:51.642Z,12.50
2019-05-09T23:18:20.547Z,12.60
2019-05-09T23:20:50.993Z,12.50
2019-05-09T23:23:21.535Z,12.50
2019-05-09T23:25:50.446Z,12.50
2019-05-09T23:28:19.349Z,12.50
2019-05-09T23:30:49.799Z,12.50
2019-05-09T23:33:19.013Z,12.40
2019-05-09T23:35:47.935Z,12.50
2019-05-09T23:38:16.926Z,12.40
2019-05-09T23:40:45.838Z,12.40
2019-05-09T23:43:14.744Z,12.40
2019-05-09T23:45:43.651Z,12.40
2019-05-09T23:48:14.068Z,12.30
2019-05-09T23:50:43.001Z,12.30
2019-05-09T23:53:11.908Z,12.20
2019-05-09T23:55:58.623Z,12.30
2019-05-09T23:58:45.545Z,12.40
